createdAt,value
2023-08-14T00:03:13.987Z,17.44
2023-08-14T00:06:28.818Z,17.51
2023-08-14T00:07:29.836Z,17.51
2023-08-14T00:08:29.809Z,17.55
2023-08-14T00:09:29.804Z,17.55
2023-08-14T00:10:29.771Z,17.56
2023-08-14T00:11:29.766Z,17.55
2023-08-14T00:12:29.765Z,17.59
2023-08-14T00:13:29.865Z,17.59
2023-08-14T00:14:29.737Z,17.62
2023-08-14T00:15:29.877Z,17.62
2023-08-14T00:16:29.724Z,17.64
2023-08-14T00:17:29.708Z,17.62
2023-08-14T00:18:29.684Z,17.62
2023-08-14T00:19:29.673Z,17.58
2023-08-14T00:20:29.672Z,17.58
2023-08-14T00:21:29.629Z,17.55
2023-08-14T00:22:29.622Z,17.55
2023-08-14T00:23:29.612Z,17.54
2023-08-14T00:24:29.611Z,17.54
2023-08-14T00:25:29.602Z,17.54
2023-08-14T00:26:29.562Z,17.54
2023-08-14T00:27:29.549Z,17.55
2023-08-14T00:28:29.535Z,17.56
2023-08-14T00:29:29.525Z,17.59
2023-08-14T00:30:29.549Z,17.59
2023-08-14T00:31:29.599Z,17.56
2023-08-14T00:32:29.486Z,17.58
2023-08-14T00:33:29.481Z,17.59
2023-08-14T00:34:29.464Z,17.56
2023-08-14T00:35:29.462Z,17.58
2023-08-14T00:36:29.427Z,17.56
2023-08-14T00:37:29.442Z,17.55
2023-08-14T00:38:29.408Z,17.54
2023-08-14T00:39:29.405Z,17.54
2023-08-14T00:40:29.412Z,17.55
2023-08-14T00:41:29.359Z,17.55
2023-08-14T00:42:29.365Z,17.56
2023-08-14T00:43:29.347Z,17.54
2023-08-14T00:44:29.335Z,17.49
2023-08-14T00:45:36.899Z,17.52
2023-08-14T00:46:29.333Z,17.51
2023-08-14T00:47:29.353Z,17.51
2023-08-14T00:48:29.279Z,17.48
2023-08-14T00:49:29.277Z,17.48
2023-08-14T00:50:29.254Z,17.44
2023-08-14T00:51:29.249Z,17.44
2023-08-14T00:52:29.228Z,17.43
2023-08-14T00:53:29.219Z,17.40
2023-08-14T00:54:29.237Z,17.41
2023-08-14T00:55:29.228Z,17.41
2023-08-14T00:56:29.187Z,17.41
2023-08-14T00:57:29.178Z,17.38
2023-08-14T00:58:29.135Z,17.36
2023-08-14T00:59:29.145Z,17.36
2023-08-14T01:00:29.186Z,17.34
2023-08-14T01:01:29.122Z,17.36
2023-08-14T01:02:29.136Z,17.33
2023-08-14T01:03:29.127Z,17.34
2023-08-14T01:04:29.060Z,17.33
2023-08-14T01:05:29.071Z,17.36
2023-08-14T01:06:29.041Z,17.38
2023-08-14T01:07:29.044Z,17.38
2023-08-14T01:08:29.006Z,17.40
2023-08-14T01:09:29.009Z,17.41
2023-08-14T01:10:29.010Z,17.41
2023-08-14T01:11:28.976Z,17.38
2023-08-14T01:12:28.969Z,17.40
2023-08-14T01:13:30.860Z,17.40
2023-08-14T01:14:28.936Z,17.40
2023-08-14T01:15:28.930Z,17.40
2023-08-14T01:16:29.075Z,17.36
2023-08-14T01:17:31.678Z,17.34
2023-08-14T01:18:28.892Z,17.30
2023-08-14T01:19:28.890Z,17.30
2023-08-14T01:20:28.883Z,17.28
2023-08-14T01:21:28.857Z,17.25
2023-08-14T01:22:28.885Z,17.22
2023-08-14T01:23:28.821Z,17.21
2023-08-14T01:24:28.821Z,17.21
2023-08-14T01:25:28.814Z,17.18
2023-08-14T01:26:28.786Z,17.22
2023-08-14T01:27:28.807Z,17.21
2023-08-14T01:28:28.769Z,17.21
2023-08-14T01:29:28.746Z,17.19
2023-08-14T01:30:28.779Z,17.18
2023-08-14T01:31:28.731Z,17.16
2023-08-14T01:32:28.802Z,17.18
2023-08-14T01:33:28.796Z,17.15
2023-08-14T01:34:28.677Z,17.12
2023-08-14T01:35:28.661Z,17.12
2023-08-14T01:36:28.680Z,17.12
2023-08-14T01:39:15.212Z,17.11
2023-08-14T01:40:26.206Z,17.06
2023-08-14T01:41:30.208Z,17.07
2023-08-14T01:42:16.409Z,17.08
2023-08-14T01:43:16.160Z,17.06
2023-08-14T01:44:16.180Z,17.06
2023-08-14T01:45:16.142Z,17.06
2023-08-14T01:46:16.162Z,17.07
2023-08-14T01:47:16.111Z,17.06
2023-08-14T01:48:16.102Z,17.07
2023-08-14T01:49:16.071Z,17.07
2023-08-14T01:50:16.081Z,17.08
2023-08-14T01:51:16.043Z,17.04
2023-08-14T01:52:16.412Z,17.00
2023-08-14T01:53:16.016Z,16.98
2023-08-14T01:54:16.012Z,16.98
2023-08-14T01:55:16.006Z,16.93
2023-08-14T01:56:16.018Z,16.91
2023-08-14T01:57:15.991Z,16.85
2023-08-14T01:58:15.965Z,16.86
2023-08-14T01:59:15.936Z,16.86
2023-08-14T02:00:15.936Z,16.89
2023-08-14T02:01:15.932Z,16.89
2023-08-14T02:02:16.490Z,16.91
2023-08-14T02:03:15.992Z,16.91
2023-08-14T02:04:15.879Z,16.89
2023-08-14T02:05:15.867Z,16.91
2023-08-14T02:06:15.891Z,16.91
2023-08-14T02:07:15.853Z,16.88
2023-08-14T02:08:15.875Z,16.94
2023-08-14T02:09:15.823Z,16.86
2023-08-14T02:10:15.824Z,16.85
2023-08-14T02:11:15.797Z,16.82
2023-08-14T02:12:16.069Z,16.83
2023-08-14T02:13:15.810Z,16.82
2023-08-14T02:14:15.777Z,16.82
2023-08-14T02:15:15.749Z,16.81
2023-08-14T02:16:15.764Z,16.81
2023-08-14T02:17:15.735Z,16.79
2023-08-14T02:18:15.722Z,16.81
2023-08-14T02:19:15.851Z,16.81
2023-08-14T02:20:15.708Z,16.81
2023-08-14T02:21:15.689Z,16.78
2023-08-14T02:22:15.939Z,16.76
2023-08-14T02:23:26.892Z,16.73
2023-08-14T02:24:15.633Z,16.73
2023-08-14T02:25:15.622Z,16.71
2023-08-14T02:26:15.650Z,16.71
2023-08-14T02:30:19.646Z,16.78
2023-08-14T02:31:20.679Z,16.73
2023-08-14T02:32:21.065Z,16.64
2023-08-14T02:33:20.611Z,16.60
2023-08-14T02:34:20.572Z,16.56
2023-08-14T02:35:20.610Z,16.52
2023-08-14T02:36:20.575Z,16.48
2023-08-14T02:37:20.552Z,16.50
2023-08-14T02:38:20.538Z,16.49
2023-08-14T02:39:20.520Z,16.46
2023-08-14T02:40:20.497Z,16.46
2023-08-14T02:41:20.486Z,16.48
2023-08-14T02:42:20.716Z,16.56
2023-08-14T02:43:20.483Z,16.56
2023-08-14T02:44:20.474Z,16.53
2023-08-14T02:45:20.441Z,16.48
2023-08-14T02:46:20.427Z,16.45
2023-08-14T02:47:20.424Z,16.38
2023-08-14T02:48:20.405Z,16.35
2023-08-14T02:49:20.617Z,16.33
2023-08-14T02:50:20.370Z,16.30
2023-08-14T02:51:20.361Z,16.28
2023-08-14T02:52:20.499Z,16.27
2023-08-14T02:53:20.337Z,16.28
2023-08-14T02:54:20.315Z,16.30
2023-08-14T02:55:20.324Z,16.33
2023-08-14T02:56:20.334Z,16.33
2023-08-14T02:57:20.329Z,16.33
2023-08-14T02:58:20.300Z,16.34
2023-08-14T02:59:20.266Z,16.38
2023-08-14T03:00:20.241Z,16.39
2023-08-14T03:01:20.294Z,16.39
2023-08-14T03:02:20.636Z,16.35
2023-08-14T03:03:20.273Z,16.34
2023-08-14T03:04:20.238Z,16.33
2023-08-14T03:05:20.197Z,16.30
2023-08-14T03:06:20.169Z,16.30
2023-08-14T03:07:20.247Z,16.27
2023-08-14T03:08:20.163Z,16.28
2023-08-14T03:09:20.132Z,16.27
2023-08-14T03:10:20.169Z,16.30
2023-08-14T03:11:20.110Z,16.24
2023-08-14T03:12:20.324Z,16.27
2023-08-14T03:13:20.129Z,16.25
2023-08-14T03:14:20.080Z,16.27
2023-08-14T03:15:20.059Z,16.27
2023-08-14T03:16:20.089Z,16.28
2023-08-14T03:17:20.023Z,16.28
2023-08-14T03:18:20.028Z,16.27
2023-08-14T03:19:20.023Z,16.21
2023-08-14T03:20:20.013Z,16.24
2023-08-14T03:21:19.981Z,16.14
2023-08-14T03:22:20.271Z,16.14
2023-08-14T03:23:19.955Z,16.17
2023-08-14T03:24:19.976Z,16.15
2023-08-14T03:25:19.950Z,16.17
2023-08-14T03:26:19.935Z,16.20
2023-08-14T03:27:19.874Z,16.21
2023-08-14T03:28:19.890Z,16.23
2023-08-14T03:29:19.888Z,16.23
2023-08-14T03:30:19.880Z,16.24
2023-08-14T03:31:19.857Z,16.24
2023-08-14T03:32:20.126Z,16.25
2023-08-14T03:33:19.777Z,16.23
2023-08-14T03:34:19.831Z,16.23
2023-08-14T03:35:19.827Z,16.20
2023-08-14T03:36:19.768Z,16.20
2023-08-14T03:37:19.755Z,16.17
2023-08-14T03:38:19.729Z,16.21
2023-08-14T03:39:19.727Z,16.21
2023-08-14T03:40:19.688Z,16.23
2023-08-14T03:41:19.679Z,16.20
2023-08-14T03:42:19.960Z,16.20
2023-08-14T03:43:19.667Z,16.14
2023-08-14T03:44:19.682Z,16.21
2023-08-14T03:45:19.663Z,16.21
2023-08-14T03:46:19.659Z,16.20
2023-08-14T03:47:19.609Z,16.15
2023-08-14T03:48:19.588Z,16.14
2023-08-14T03:49:19.618Z,16.12
2023-08-14T03:50:19.573Z,16.09
2023-08-14T03:51:19.559Z,16.08
2023-08-14T03:52:19.887Z,16.08
2023-08-14T03:53:19.558Z,16.09
2023-08-14T03:54:19.522Z,16.07
2023-08-14T03:55:19.544Z,16.07
2023-08-14T03:56:19.494Z,16.07
2023-08-14T03:57:19.487Z,16.07
2023-08-14T03:58:19.473Z,16.07
2023-08-14T03:59:19.479Z,16.04
2023-08-14T04:00:19.436Z,16.04
2023-08-14T04:01:19.435Z,16.02
2023-08-14T04:02:19.706Z,16.00
2023-08-14T04:03:19.539Z,16.00
2023-08-14T04:04:19.387Z,16.01
2023-08-14T04:05:19.399Z,15.96
2023-08-14T04:06:19.391Z,16.00
2023-08-14T04:07:19.387Z,16.00
2023-08-14T04:08:19.344Z,15.97
2023-08-14T04:09:19.333Z,15.97
2023-08-14T04:10:19.333Z,16.02
2023-08-14T04:11:19.299Z,16.00
2023-08-14T04:12:19.559Z,16.00
2023-08-14T04:13:19.297Z,15.97
2023-08-14T04:14:19.267Z,15.97
2023-08-14T04:15:19.265Z,15.97
2023-08-14T04:16:19.284Z,15.97
2023-08-14T04:17:19.257Z,15.97
2023-08-14T04:18:19.242Z,15.97
2023-08-14T04:19:19.286Z,15.94
2023-08-14T04:20:19.190Z,16.01
2023-08-14T04:21:19.178Z,16.00
2023-08-14T04:22:19.494Z,15.96
2023-08-14T04:23:19.164Z,16.00
2023-08-14T04:24:19.144Z,16.00
2023-08-14T04:25:19.143Z,16.01
2023-08-14T04:26:19.129Z,16.01
2023-08-14T04:27:19.100Z,16.01
2023-08-14T04:28:19.092Z,16.00
2023-08-14T04:29:19.096Z,16.02
2023-08-14T04:30:19.059Z,16.00
2023-08-14T04:31:19.122Z,16.04
2023-08-14T04:32:19.248Z,16.02
2023-08-14T04:33:19.026Z,16.07
2023-08-14T04:34:19.026Z,16.07
2023-08-14T04:35:19.059Z,16.08
2023-08-14T04:36:19.001Z,16.09
2023-08-14T04:37:18.991Z,16.08
2023-08-14T04:38:18.971Z,16.11
2023-08-14T04:39:18.967Z,16.14
2023-08-14T04:40:18.993Z,16.15
2023-08-14T04:41:18.927Z,16.23
2023-08-14T04:42:19.152Z,16.24
2023-08-14T04:43:18.918Z,16.27
2023-08-14T04:44:18.904Z,16.25
2023-08-14T04:45:18.933Z,16.31
2023-08-14T04:46:18.901Z,16.33
2023-08-14T04:47:18.853Z,16.34
2023-08-14T04:48:18.908Z,16.34
2023-08-14T04:49:18.855Z,16.39
2023-08-14T04:50:18.825Z,16.38
2023-08-14T04:51:18.803Z,16.38
2023-08-14T04:52:19.008Z,16.41
2023-08-14T04:53:18.772Z,16.46
2023-08-14T04:54:18.767Z,16.45
2023-08-14T04:55:18.792Z,16.48
2023-08-14T04:56:18.733Z,16.50
2023-08-14T04:57:18.737Z,16.48
2023-08-14T04:58:21.849Z,16.46
2023-08-14T04:59:18.723Z,16.50
2023-08-14T05:00:18.739Z,16.52
2023-08-14T05:01:18.770Z,16.56
2023-08-14T05:02:18.964Z,16.58
2023-08-14T05:03:18.679Z,16.61
2023-08-14T05:04:18.713Z,16.61
2023-08-14T05:05:18.643Z,16.66
2023-08-14T05:06:18.639Z,16.67
2023-08-14T05:07:18.627Z,16.64
2023-08-14T05:08:18.584Z,16.66
2023-08-14T05:09:26.643Z,16.66
2023-08-14T05:10:18.594Z,16.73
2023-08-14T05:11:18.559Z,16.76
2023-08-14T05:12:18.753Z,16.79
2023-08-14T05:13:18.563Z,16.81
2023-08-14T05:14:18.515Z,16.86
2023-08-14T05:15:18.499Z,16.91
2023-08-14T05:16:18.497Z,16.93
2023-08-14T05:17:18.472Z,16.93
2023-08-14T05:18:18.463Z,16.96
2023-08-14T05:19:29.453Z,17.00
2023-08-14T05:20:18.446Z,17.08
2023-08-14T05:21:18.432Z,17.11
2023-08-14T05:22:18.592Z,17.25
2023-08-14T05:23:18.395Z,17.37
2023-08-14T05:24:18.417Z,17.36
2023-08-14T05:25:18.389Z,17.43
2023-08-14T05:26:18.366Z,17.46
2023-08-14T05:27:18.339Z,17.51
2023-08-14T05:28:18.354Z,17.51
2023-08-14T05:29:18.337Z,17.59
2023-08-14T05:30:18.354Z,17.71
2023-08-14T05:31:18.323Z,17.75
2023-08-14T05:32:18.496Z,17.71
2023-08-14T05:33:18.289Z,17.71
2023-08-14T05:34:18.257Z,17.70
2023-08-14T05:35:18.261Z,17.70
2023-08-14T05:36:18.240Z,17.71
2023-08-14T05:37:18.234Z,17.71
2023-08-14T05:38:18.211Z,17.86
2023-08-14T05:39:18.208Z,17.89
2023-08-14T05:40:18.181Z,17.86
2023-08-14T05:41:18.160Z,17.89
2023-08-14T05:42:18.581Z,17.90
2023-08-14T05:43:18.135Z,17.84
2023-08-14T05:44:18.133Z,17.92
2023-08-14T05:45:18.242Z,18.05
2023-08-14T05:46:18.118Z,18.15
2023-08-14T05:47:18.114Z,18.29
2023-08-14T05:48:18.101Z,18.42
2023-08-14T05:49:18.174Z,18.37
2023-08-14T05:50:18.073Z,18.45
2023-08-14T05:51:18.106Z,18.52
2023-08-14T05:52:18.296Z,18.52
2023-08-14T05:53:18.020Z,18.60
2023-08-14T05:54:18.253Z,18.66
2023-08-14T05:55:18.031Z,18.75
2023-08-14T05:56:18.008Z,18.81
2023-08-14T05:57:17.978Z,18.91
2023-08-14T05:58:17.976Z,18.91
2023-08-14T05:59:17.946Z,19.06
2023-08-14T06:00:17.949Z,19.21
2023-08-14T06:01:17.986Z,19.26
2023-08-14T06:02:18.284Z,19.28
2023-08-14T06:03:28.971Z,19.11
2023-08-14T06:04:17.958Z,19.08
2023-08-14T06:05:17.886Z,18.94
2023-08-14T06:06:17.885Z,19.00
2023-08-14T06:07:17.845Z,19.16
2023-08-14T06:08:17.846Z,19.43
2023-08-14T06:09:17.822Z,19.68
2023-08-14T06:10:17.812Z,19.69
2023-08-14T06:11:17.786Z,19.66
2023-08-14T06:12:18.899Z,19.58
2023-08-14T06:13:17.762Z,19.62
2023-08-14T06:14:17.775Z,19.69
2023-08-14T06:15:17.790Z,19.71
2023-08-14T06:16:17.731Z,19.74
2023-08-14T06:17:17.706Z,19.83
2023-08-14T06:18:17.714Z,19.86
2023-08-14T06:19:17.686Z,19.92
2023-08-14T06:20:53.474Z,19.95
2023-08-14T06:21:17.686Z,19.99
2023-08-14T06:22:17.847Z,19.99
2023-08-14T06:23:17.638Z,19.87
2023-08-14T06:24:17.663Z,19.99
2023-08-14T06:25:17.617Z,19.98
2023-08-14T06:26:17.596Z,19.94
2023-08-14T06:27:17.587Z,20.03
2023-08-14T06:28:17.569Z,19.88
2023-08-14T06:29:17.566Z,19.91
2023-08-14T06:30:17.560Z,19.95
2023-08-14T06:31:17.620Z,20.03
2023-08-14T06:32:17.919Z,20.18
2023-08-14T06:33:17.545Z,20.35
2023-08-14T06:34:17.516Z,20.54
2023-08-14T06:35:17.499Z,20.54
2023-08-14T06:36:17.517Z,20.57
2023-08-14T06:37:17.482Z,20.64
2023-08-14T06:38:17.454Z,20.69
2023-08-14T06:39:17.439Z,20.55
2023-08-14T06:40:17.428Z,20.52
2023-08-14T06:41:17.443Z,20.57
2023-08-14T06:42:17.678Z,20.64
2023-08-14T06:43:17.383Z,20.70
2023-08-14T06:44:17.408Z,20.79
2023-08-14T06:45:17.360Z,20.77
2023-08-14T06:46:17.366Z,20.59
2023-08-14T06:47:17.431Z,20.69
2023-08-14T06:48:17.366Z,20.74
2023-08-14T06:49:17.317Z,20.77
2023-08-14T06:50:17.290Z,20.79
2023-08-14T06:51:17.336Z,21.07
2023-08-14T06:52:17.768Z,21.17
2023-08-14T06:53:17.259Z,21.24
2023-08-14T06:54:17.400Z,21.19
2023-08-14T06:55:17.232Z,21.24
2023-08-14T06:56:17.228Z,21.12
2023-08-14T06:57:17.225Z,21.09
2023-08-14T06:58:17.245Z,21.13
2023-08-14T06:59:17.181Z,21.34
2023-08-14T07:00:17.211Z,21.54
2023-08-14T07:01:17.316Z,21.50
2023-08-14T07:02:17.434Z,21.43
2023-08-14T07:03:17.305Z,21.42
2023-08-14T07:04:17.122Z,21.44
2023-08-14T07:05:18.438Z,21.43
2023-08-14T07:06:17.116Z,21.42
2023-08-14T07:07:17.105Z,21.58
2023-08-14T07:08:17.153Z,21.75
2023-08-14T07:09:17.060Z,21.91
2023-08-14T07:10:19.681Z,22.02
2023-08-14T07:11:17.047Z,22.27
2023-08-14T07:12:17.271Z,22.55
2023-08-14T07:13:17.035Z,22.73
2023-08-14T07:14:17.031Z,22.15
2023-08-14T07:15:16.991Z,21.80
2023-08-14T07:16:17.054Z,21.90
2023-08-14T07:17:17.116Z,21.99
2023-08-14T07:18:16.971Z,21.98
2023-08-14T07:19:16.970Z,22.06
2023-08-14T07:20:16.917Z,22.10
2023-08-14T07:21:16.927Z,22.43
2023-08-14T07:22:17.198Z,22.65
2023-08-14T07:23:16.897Z,22.83
2023-08-14T07:24:16.905Z,22.54
2023-08-14T07:25:16.878Z,22.54
2023-08-14T07:26:16.973Z,22.72
2023-08-14T07:27:16.865Z,22.80
2023-08-14T07:28:16.839Z,22.64
2023-08-14T07:29:19.684Z,22.62
2023-08-14T07:30:16.839Z,22.60
2023-08-14T07:31:16.850Z,22.70
2023-08-14T07:32:17.222Z,22.79
2023-08-14T07:33:16.816Z,22.86
2023-08-14T07:34:16.770Z,22.97
2023-08-14T07:35:16.751Z,22.77
2023-08-14T07:36:16.785Z,22.55
2023-08-14T07:37:16.745Z,22.60
2023-08-14T07:38:16.749Z,22.47
2023-08-14T07:39:17.604Z,22.45
2023-08-14T07:40:16.691Z,22.43
2023-08-14T07:41:16.672Z,22.21
2023-08-14T07:42:16.940Z,22.00
2023-08-14T07:43:16.667Z,21.83
2023-08-14T07:44:16.634Z,21.79
2023-08-14T07:45:16.614Z,21.90
2023-08-14T07:46:16.657Z,22.09
2023-08-14T07:47:16.640Z,22.15
2023-08-14T07:48:16.648Z,22.25
2023-08-14T07:49:16.569Z,22.43
2023-08-14T07:50:16.627Z,22.57
2023-08-14T07:51:16.558Z,22.75
2023-08-14T07:52:16.932Z,22.94
2023-08-14T07:53:16.518Z,23.10
2023-08-14T07:54:16.519Z,23.09
2023-08-14T07:55:16.482Z,23.05
2023-08-14T07:56:16.469Z,23.13
2023-08-14T07:57:16.461Z,23.32
2023-08-14T07:58:16.451Z,23.43
2023-08-14T07:59:16.454Z,23.39
2023-08-14T08:00:16.461Z,23.28
2023-08-14T08:01:16.522Z,23.20
2023-08-14T08:02:17.487Z,23.10
2023-08-14T08:03:16.412Z,23.22
2023-08-14T08:05:18.686Z,22.82
2023-08-14T08:06:16.380Z,22.85
2023-08-14T08:07:26.191Z,22.85
2023-08-14T08:08:22.859Z,22.85
2023-08-14T08:09:16.293Z,22.80
2023-08-14T08:10:16.316Z,22.80
2023-08-14T08:11:16.295Z,22.80
2023-08-14T08:12:16.813Z,22.73
2023-08-14T08:13:16.245Z,22.51
2023-08-14T08:14:16.237Z,22.58
2023-08-14T08:15:16.229Z,22.98
2023-08-14T08:16:16.352Z,23.05
2023-08-14T08:17:16.200Z,23.20
2023-08-14T08:18:16.219Z,23.48
2023-08-14T08:19:16.252Z,23.35
2023-08-14T08:20:16.168Z,23.55
2023-08-14T08:21:16.189Z,23.63
2023-08-14T08:22:16.159Z,23.85
2023-08-14T08:23:16.185Z,23.93
2023-08-14T08:24:16.121Z,24.22
2023-08-14T08:25:16.126Z,24.09
2023-08-14T08:26:16.508Z,23.58
2023-08-14T08:27:16.083Z,23.20
2023-08-14T08:28:16.078Z,22.95
2023-08-14T08:29:16.051Z,22.95
2023-08-14T08:30:16.081Z,22.80
2023-08-14T08:31:16.043Z,22.73
2023-08-14T08:32:16.314Z,22.62
2023-08-14T08:33:16.104Z,22.52
2023-08-14T08:34:17.205Z,22.45
2023-08-14T08:35:15.973Z,22.65
2023-08-14T08:36:16.028Z,22.80
2023-08-14T08:37:15.951Z,23.00
2023-08-14T08:38:15.952Z,23.07
2023-08-14T08:39:19.556Z,23.12
2023-08-14T08:40:15.986Z,23.42
2023-08-14T08:41:15.905Z,23.72
2023-08-14T08:43:15.885Z,24.15
2023-08-14T08:44:15.903Z,24.27
2023-08-14T08:45:15.866Z,24.13
2023-08-14T08:46:15.909Z,24.20
2023-08-14T08:47:15.844Z,24.57
2023-08-14T08:48:15.931Z,25.00
2023-08-14T08:49:15.821Z,24.69
2023-08-14T08:50:15.797Z,24.45
2023-08-14T08:51:15.813Z,24.20
2023-08-14T08:52:16.020Z,24.08
2023-08-14T08:53:22.419Z,24.12
2023-08-14T08:54:15.752Z,24.65
2023-08-14T08:55:16.767Z,25.27
2023-08-14T08:56:15.795Z,24.98
2023-08-14T08:57:15.853Z,24.30
2023-08-14T08:58:26.262Z,24.35
2023-08-14T08:59:15.684Z,24.77
2023-08-14T09:00:15.704Z,25.36
2023-08-14T09:01:15.846Z,26.07
2023-08-14T09:02:33.237Z,26.54
2023-08-14T09:03:15.745Z,26.82
2023-08-14T09:04:15.763Z,26.99
2023-08-14T09:05:17.176Z,26.63
2023-08-14T09:06:15.619Z,26.73
2023-08-14T09:07:15.613Z,25.91
2023-08-14T09:08:15.614Z,26.21
2023-08-14T09:09:15.564Z,26.12
2023-08-14T09:10:16.165Z,25.61
2023-08-14T09:11:15.564Z,25.15
2023-08-14T09:12:15.564Z,25.13
2023-08-14T09:13:15.804Z,25.30
2023-08-14T09:14:16.092Z,26.09
2023-08-14T09:15:15.497Z,26.25
2023-08-14T09:16:15.571Z,25.38
2023-08-14T09:17:16.560Z,25.02
2023-08-14T09:18:15.458Z,24.81
2023-08-14T09:19:15.490Z,25.20
2023-08-14T09:23:04.429Z,27.36
2023-08-14T09:28:10.464Z,26.85
2023-08-14T09:29:12.957Z,27.22
2023-08-14T09:30:41.465Z,27.84
2023-08-14T09:31:13.766Z,28.24
2023-08-14T09:35:07.819Z,26.33
2023-08-14T09:36:08.021Z,25.79
2023-08-14T09:37:31.936Z,25.39
2023-08-14T09:38:22.812Z,25.36
2023-08-14T09:39:20.175Z,25.20
2023-08-14T09:40:08.093Z,24.98
2023-08-14T09:41:43.614Z,25.72
2023-08-14T09:42:09.647Z,26.51
2023-08-14T09:43:09.179Z,27.03
2023-08-14T09:49:16.289Z,26.97
2023-08-14T09:50:16.907Z,26.91
2023-08-14T09:51:16.003Z,27.19
2023-08-14T09:52:16.060Z,26.15
2023-08-14T09:53:15.981Z,25.99
2023-08-14T09:54:15.981Z,26.33
2023-08-14T09:55:23.554Z,26.69
2023-08-14T09:56:15.942Z,26.69
2023-08-14T09:57:19.910Z,26.20
2023-08-14T09:58:15.935Z,26.26
2023-08-14T09:59:16.272Z,26.80
2023-08-14T10:01:52.812Z,26.47
2023-08-14T10:02:52.816Z,25.99
2023-08-14T10:03:54.701Z,26.58
2023-08-14T10:04:51.893Z,27.13
2023-08-14T10:05:51.942Z,27.37
2023-08-14T10:06:51.904Z,27.65
2023-08-14T10:09:15.835Z,26.63
2023-08-14T10:10:16.794Z,26.06
2023-08-14T10:11:19.826Z,26.76
2023-08-14T10:12:19.803Z,26.92
2023-08-14T10:13:19.321Z,27.04
2023-08-14T10:14:16.763Z,25.97
2023-08-14T10:15:18.464Z,26.95
2023-08-14T10:16:16.730Z,26.43
2023-08-14T10:17:31.341Z,26.76
2023-08-14T10:18:16.736Z,26.88
2023-08-14T10:19:16.687Z,26.82
2023-08-14T10:20:16.728Z,26.82
2023-08-14T10:21:17.439Z,26.80
2023-08-14T10:22:16.869Z,26.89
2023-08-14T10:23:23.312Z,27.13
2023-08-14T10:24:21.894Z,27.82
2023-08-14T10:25:16.600Z,27.47
2023-08-14T10:26:18.000Z,27.62
2023-08-14T10:27:17.378Z,27.00
2023-08-14T10:28:16.580Z,26.76
2023-08-14T10:29:16.588Z,27.19
2023-08-14T10:30:19.358Z,27.60
2023-08-14T10:31:16.557Z,27.24
2023-08-14T10:32:17.000Z,27.09
2023-08-14T10:33:16.563Z,26.94
2023-08-14T10:35:09.365Z,26.60
2023-08-14T10:35:16.489Z,26.25
2023-08-14T10:36:16.530Z,26.67
2023-08-14T10:37:16.480Z,26.75
2023-08-14T10:38:25.354Z,27.18
2023-08-14T10:39:31.349Z,27.12
2023-08-14T10:40:16.436Z,27.29
2023-08-14T10:41:16.468Z,27.03
2023-08-14T10:42:38.216Z,27.02
2023-08-14T10:43:24.634Z,27.27
2023-08-14T10:44:16.389Z,27.77
2023-08-14T10:45:16.375Z,27.47
2023-08-14T10:46:28.672Z,27.31
2023-08-14T10:47:16.454Z,27.81
2023-08-14T10:48:22.875Z,28.55
2023-08-14T10:49:16.688Z,28.44
2023-08-14T10:50:16.320Z,28.19
2023-08-14T10:51:16.315Z,28.36
2023-08-14T10:52:28.862Z,28.62
2023-08-14T10:53:24.687Z,29.51
2023-08-14T10:54:17.749Z,29.16
2023-08-14T10:55:17.383Z,29.67
2023-08-14T10:56:29.787Z,29.79
2023-08-14T10:57:16.498Z,28.58
2023-08-14T10:58:18.870Z,27.32
2023-08-14T11:05:17.385Z,28.96
2023-08-14T11:09:58.350Z,29.43
2023-08-14T11:11:02.250Z,29.67
2023-08-14T11:13:19.497Z,28.68
2023-08-14T11:18:26.654Z,26.77
2023-08-14T11:19:27.700Z,27.09
2023-08-14T11:20:27.609Z,27.96
2023-08-14T11:21:32.194Z,27.54
2023-08-14T11:23:38.284Z,26.25
2023-08-14T11:24:46.087Z,25.85
2023-08-14T11:25:39.293Z,26.63
2023-08-14T11:26:39.240Z,27.31
2023-08-14T11:27:39.213Z,27.12
2023-08-14T11:30:39.181Z,26.75
2023-08-14T11:32:57.472Z,27.36
2023-08-14T11:33:58.382Z,27.02
2023-08-14T11:37:24.854Z,26.69
2023-08-14T11:38:25.888Z,27.18
2023-08-14T11:39:25.660Z,26.35
2023-08-14T11:40:25.634Z,25.99
2023-08-14T11:41:31.506Z,26.07
2023-08-14T11:42:29.057Z,26.91
2023-08-14T11:43:33.395Z,26.43
2023-08-14T11:44:42.725Z,26.54
2023-08-14T11:45:28.452Z,25.98
2023-08-14T11:46:25.559Z,26.25
2023-08-14T11:47:31.363Z,26.18
2023-08-14T11:48:32.689Z,26.52
2023-08-14T11:49:36.792Z,27.10
2023-08-14T11:50:25.533Z,26.70
2023-08-14T11:51:25.497Z,26.43
2023-08-14T11:52:25.710Z,26.88
2023-08-14T11:53:25.467Z,27.02
2023-08-14T11:54:26.918Z,26.84
2023-08-14T11:55:25.428Z,26.47
2023-08-14T11:56:26.100Z,26.17
2023-08-14T11:57:25.434Z,25.85
2023-08-14T11:58:25.437Z,25.94
2023-08-14T11:59:25.515Z,25.99
2023-08-14T12:00:30.139Z,26.15
2023-08-14T12:01:25.390Z,26.18
2023-08-14T12:02:25.406Z,26.54
2023-08-14T12:03:25.405Z,26.26
2023-08-14T12:04:25.354Z,26.50
2023-08-14T12:05:33.033Z,26.84
2023-08-14T12:07:45.974Z,26.89
2023-08-14T12:08:46.775Z,26.77
2023-08-14T12:09:48.618Z,26.73
2023-08-14T12:10:57.852Z,26.97
2023-08-14T12:14:05.055Z,26.63
2023-08-14T12:16:53.343Z,26.63
2023-08-14T12:20:24.005Z,27.44
2023-08-14T12:23:34.937Z,26.91
2023-08-14T12:24:25.152Z,27.44
2023-08-14T12:25:21.504Z,27.43
2023-08-14T12:26:21.879Z,27.00
2023-08-14T12:27:21.941Z,27.67
2023-08-14T12:28:23.514Z,27.47
2023-08-14T12:29:24.408Z,27.00
2023-08-14T12:30:22.421Z,26.50
2023-08-14T12:31:44.221Z,26.65
2023-08-14T12:32:21.538Z,26.81
2023-08-14T12:33:21.416Z,26.50
2023-08-14T12:34:21.419Z,26.48
2023-08-14T12:35:21.394Z,26.76
2023-08-14T12:36:30.787Z,27.09
2023-08-14T12:37:21.754Z,27.27
2023-08-14T12:38:22.537Z,27.72
2023-08-14T12:39:30.074Z,27.82
2023-08-14T12:47:18.685Z,27.72
2023-08-14T12:48:30.316Z,27.55
2023-08-14T12:49:30.245Z,27.32
2023-08-14T12:50:22.300Z,27.34
2023-08-14T12:51:25.153Z,27.12
2023-08-14T12:52:28.878Z,27.34
2023-08-14T12:53:50.716Z,27.34
2023-08-14T12:54:18.208Z,27.49
2023-08-14T12:55:18.890Z,27.51
2023-08-14T12:56:19.045Z,27.21
2023-08-14T12:57:16.983Z,27.10
2023-08-14T12:59:37.236Z,28.03
2023-08-14T13:00:23.633Z,27.77
2023-08-14T13:08:31.686Z,28.02
2023-08-14T13:09:32.912Z,28.18
2023-08-14T13:25:02.017Z,28.70
2023-08-14T13:25:32.519Z,28.21
2023-08-14T13:26:09.368Z,29.41
2023-08-14T13:27:11.587Z,30.13
2023-08-14T13:28:59.830Z,29.90
2023-08-14T13:29:19.289Z,29.48
2023-08-14T13:30:30.218Z,28.85
2023-08-14T13:31:30.226Z,28.37
2023-08-14T13:32:09.182Z,28.12
2023-08-14T13:33:09.189Z,27.81
2023-08-14T13:34:15.283Z,27.46
2023-08-14T13:35:17.416Z,27.70
2023-08-14T13:36:31.360Z,27.51
2023-08-14T13:39:19.362Z,28.83
2023-08-14T13:40:37.467Z,28.40
2023-08-14T13:48:20.595Z,29.00
2023-08-14T13:49:20.839Z,29.16
2023-08-14T13:50:31.797Z,30.13
2023-08-14T13:51:23.744Z,29.97
2023-08-14T13:52:20.177Z,30.53
2023-08-14T13:53:21.382Z,30.24
2023-08-14T13:54:27.215Z,29.76
2023-08-14T13:55:34.745Z,29.23
2023-08-14T13:56:55.591Z,28.59
2023-08-14T13:57:20.910Z,28.56
2023-08-14T14:00:45.556Z,28.21
2023-08-14T14:28:49.261Z,30.15
2023-08-14T15:04:30.221Z,28.44
2023-08-14T15:42:03.049Z,26.21
2023-08-14T15:43:02.717Z,26.18
2023-08-14T15:44:02.689Z,26.15
2023-08-14T15:45:04.196Z,26.26
2023-08-14T15:46:03.467Z,26.30
2023-08-14T15:47:02.637Z,26.29
2023-08-14T15:48:02.821Z,26.52
2023-08-14T15:49:02.617Z,26.62
2023-08-14T15:50:02.687Z,26.54
2023-08-14T15:51:02.577Z,26.47
2023-08-14T15:52:02.578Z,26.57
2023-08-14T15:53:03.207Z,26.26
2023-08-14T15:54:02.587Z,26.30
2023-08-14T15:55:02.548Z,25.95
2023-08-14T15:56:03.223Z,26.02
2023-08-14T15:57:02.765Z,26.21
2023-08-14T15:58:02.508Z,26.29
2023-08-14T15:59:02.963Z,26.18
2023-08-14T16:00:02.689Z,25.95
2023-08-14T16:01:03.213Z,25.79
2023-08-14T16:02:02.631Z,25.90
2023-08-14T16:03:02.714Z,26.06
2023-08-14T16:04:58.919Z,26.09
2023-08-14T16:05:04.624Z,25.87
2023-08-14T16:06:04.328Z,25.64
2023-08-14T16:07:05.229Z,25.67
2023-08-14T16:08:35.584Z,25.76
2023-08-14T16:09:05.400Z,25.75
2023-08-14T16:10:18.899Z,25.77
2023-08-14T16:13:00.450Z,25.91
2023-08-14T16:13:05.906Z,25.92
2023-08-14T16:14:09.309Z,25.99